Terminal Aerodrome Forecast
Issued by NWS

Home | Current Version | Previous Version | Graphics & Text | Print | Product List | Glossary Off
Versions: 1 2 3 4 5 6 7 8 9 10 11 12 13 14

000
FTUS43 KDDC 130500
TAFHYS
TAF
KHYS 130520Z 1306/1406 02011KT P6SM SCT150
     FM131100 36020G30KT P6SM BKN015 OVC100
     FM131600 01025G35KT 5SM -DZ BR OVC008=

USA.gov is the U.S. government's official web portal to all federal, state and local government web resources and services.